sensor_id;sensor_type;location;lat;lon;timestamp;temperature;humidity
52187;DHT22;38161;53.020;6.598;2023-03-23T00:02:29;10.40;99.90
52187;DHT22;38161;53.020;6.598;2023-03-23T00:04:58;10.40;99.90
52187;DHT22;38161;53.020;6.598;2023-03-23T00:07:26;10.40;99.90
52187;DHT22;38161;53.020;6.598;2023-03-23T00:09:54;10.40;99.90
52187;DHT22;38161;53.020;6.598;2023-03-23T00:12:29;10.50;99.90
52187;DHT22;38161;53.020;6.598;2023-03-23T00:15:04;10.50;99.90
52187;DHT22;38161;53.020;6.598;2023-03-23T00:17:31;10.50;99.90
52187;DHT22;38161;53.020;6.598;2023-03-23T00:19:59;10.50;99.90
52187;DHT22;38161;53.020;6.598;2023-03-23T00:22:27;10.50;99.90
52187;DHT22;38161;53.020;6.598;2023-03-23T00:24:54;10.50;99.90
52187;DHT22;38161;53.020;6.598;2023-03-23T00:27:21;10.50;99.90
52187;DHT22;38161;53.020;6.598;2023-03-23T00:29:50;10.60;99.90
52187;DHT22;38161;53.020;6.598;2023-03-23T00:32:21;10.60;99.90
52187;DHT22;38161;53.020;6.598;2023-03-23T00:34:55;10.60;99.90
52187;DHT22;38161;53.020;6.598;2023-03-23T00:37:21;10.60;99.90
52187;DHT22;38161;53.020;6.598;2023-03-23T00:39:48;10.60;99.90
52187;DHT22;38161;53.020;6.598;2023-03-23T00:42:15;10.60;99.90
52187;DHT22;38161;53.020;6.598;2023-03-23T00:44:42;10.60;99.90
52187;DHT22;38161;53.020;6.598;2023-03-23T00:47:09;10.60;99.90
52187;DHT22;38161;53.020;6.598;2023-03-23T00:49:36;10.60;99.90
52187;DHT22;38161;53.020;6.598;2023-03-23T00:52:04;10.60;99.90
52187;DHT22;38161;53.020;6.598;2023-03-23T00:54:30;10.60;99.90
52187;DHT22;38161;53.020;6.598;2023-03-23T00:56:56;10.60;99.90
52187;DHT22;38161;53.020;6.598;2023-03-23T00:59:22;10.60;99.90
52187;DHT22;38161;53.020;6.598;2023-03-23T01:01:49;10.60;99.90
52187;DHT22;38161;53.020;6.598;2023-03-23T01:04:15;10.60;99.90
52187;DHT22;38161;53.020;6.598;2023-03-23T01:06:43;10.60;99.90
52187;DHT22;38161;53.020;6.598;2023-03-23T01:09:14;10.60;99.90
52187;DHT22;38161;53.020;6.598;2023-03-23T01:11:44;10.60;99.90
52187;DHT22;38161;53.020;6.598;2023-03-23T01:14:11;10.60;99.90
52187;DHT22;38161;53.020;6.598;2023-03-23T01:16:37;10.60;99.90
52187;DHT22;38161;53.020;6.598;2023-03-23T01:19:03;10.60;99.90
52187;DHT22;38161;53.020;6.598;2023-03-23T01:21:30;10.60;99.90
52187;DHT22;38161;53.020;6.598;2023-03-23T01:23:56;10.60;99.90
52187;DHT22;38161;53.020;6.598;2023-03-23T01:26:24;10.60;99.90
52187;DHT22;38161;53.020;6.598;2023-03-23T01:28:51;10.60;99.90
52187;DHT22;38161;53.020;6.598;2023-03-23T01:31:23;10.60;99.90
52187;DHT22;38161;53.020;6.598;2023-03-23T01:33:53;10.60;99.90
52187;DHT22;38161;53.020;6.598;2023-03-23T01:36:26;10.60;99.90
52187;DHT22;38161;53.020;6.598;2023-03-23T01:38:54;10.60;99.90
52187;DHT22;38161;53.020;6.598;2023-03-23T01:41:21;10.60;99.90
52187;DHT22;38161;53.020;6.598;2023-03-23T01:46:41;10.60;99.90
52187;DHT22;38161;53.020;6.598;2023-03-23T01:49:15;10.60;99.90
52187;DHT22;38161;53.020;6.598;2023-03-23T01:51:51;10.60;99.90
52187;DHT22;38161;53.020;6.598;2023-03-23T01:54:19;10.60;99.90
52187;DHT22;38161;53.020;6.598;2023-03-23T01:57:10;10.60;99.90
52187;DHT22;38161;53.020;6.598;2023-03-23T01:59:37;10.60;99.90
52187;DHT22;38161;53.020;6.598;2023-03-23T02:02:03;10.70;99.90
52187;DHT22;38161;53.020;6.598;2023-03-23T02:04:31;10.70;99.90
52187;DHT22;38161;53.020;6.598;2023-03-23T02:06:57;10.70;99.90
52187;DHT22;38161;53.020;6.598;2023-03-23T02:09:26;10.70;99.90
52187;DHT22;38161;53.020;6.598;2023-03-23T02:11:53;10.70;99.90
52187;DHT22;38161;53.020;6.598;2023-03-23T02:14:20;10.70;99.90
52187;DHT22;38161;53.020;6.598;2023-03-23T02:25:18;10.80;99.90
52187;DHT22;38161;53.020;6.598;2023-03-23T02:30:36;10.70;99.90
52187;DHT22;38161;53.020;6.598;2023-03-23T02:35:40;10.70;99.90
52187;DHT22;38161;53.020;6.598;2023-03-23T02:38:25;10.70;99.90
52187;DHT22;38161;53.020;6.598;2023-03-23T02:40:53;10.70;99.90
52187;DHT22;38161;53.020;6.598;2023-03-23T02:43:22;10.70;99.90
52187;DHT22;38161;53.020;6.598;2023-03-23T02:45:50;10.70;99.90
52187;DHT22;38161;53.020;6.598;2023-03-23T02:48:19;10.70;99.90
52187;DHT22;38161;53.020;6.598;2023-03-23T02:50:49;10.70;99.90
52187;DHT22;38161;53.020;6.598;2023-03-23T02:53:19;10.80;99.90
52187;DHT22;38161;53.020;6.598;2023-03-23T02:55:47;10.80;99.90
52187;DHT22;38161;53.020;6.598;2023-03-23T02:58:14;10.70;99.90
52187;DHT22;38161;53.020;6.598;2023-03-23T03:00:41;10.70;99.90
52187;DHT22;38161;53.020;6.598;2023-03-23T03:03:13;10.70;99.90
52187;DHT22;38161;53.020;6.598;2023-03-23T03:13:41;10.80;99.90
52187;DHT22;38161;53.020;6.598;2023-03-23T03:19:24;10.80;99.90
52187;DHT22;38161;53.020;6.598;2023-03-23T03:21:53;10.70;99.90
52187;DHT22;38161;53.020;6.598;2023-03-23T03:24:22;10.80;99.90
52187;DHT22;38161;53.020;6.598;2023-03-23T03:26:52;10.80;99.90
52187;DHT22;38161;53.020;6.598;2023-03-23T03:29:21;10.80;99.90
52187;DHT22;38161;53.020;6.598;2023-03-23T03:31:50;10.70;99.90
52187;DHT22;38161;53.020;6.598;2023-03-23T03:34:17;10.70;99.90
52187;DHT22;38161;53.020;6.598;2023-03-23T03:36:47;10.70;99.90
52187;DHT22;38161;53.020;6.598;2023-03-23T03:39:15;10.70;99.90
52187;DHT22;38161;53.020;6.598;2023-03-23T03:41:43;10.80;99.90
52187;DHT22;38161;53.020;6.598;2023-03-23T03:44:09;10.70;99.90
52187;DHT22;38161;53.020;6.598;2023-03-23T03:46:36;10.70;99.90
52187;DHT22;38161;53.020;6.598;2023-03-23T03:49:02;10.70;99.90
52187;DHT22;38161;53.020;6.598;2023-03-23T03:51:30;10.60;99.90
52187;DHT22;38161;53.020;6.598;2023-03-23T03:53:56;10.60;99.90
52187;DHT22;38161;53.020;6.598;2023-03-23T03:56:23;10.60;99.90
52187;DHT22;38161;53.020;6.598;2023-03-23T03:58:50;10.50;99.90
52187;DHT22;38161;53.020;6.598;2023-03-23T04:01:18;10.50;99.90
52187;DHT22;38161;53.020;6.598;2023-03-23T04:03:44;10.50;99.90
52187;DHT22;38161;53.020;6.598;2023-03-23T04:06:10;10.50;99.90
52187;DHT22;38161;53.020;6.598;2023-03-23T04:08:38;10.50;99.90
52187;DHT22;38161;53.020;6.598;2023-03-23T04:11:13;10.50;99.90
52187;DHT22;38161;53.020;6.598;2023-03-23T04:13:40;10.50;99.90
52187;DHT22;38161;53.020;6.598;2023-03-23T04:16:06;10.50;99.90
52187;DHT22;38161;53.020;6.598;2023-03-23T04:18:33;10.60;99.90
52187;DHT22;38161;53.020;6.598;2023-03-23T04:20:59;10.60;99.90
52187;DHT22;38161;53.020;6.598;2023-03-23T04:23:28;10.60;99.90
52187;DHT22;38161;53.020;6.598;2023-03-23T04:25:56;10.60;99.90
52187;DHT22;38161;53.020;6.598;2023-03-23T04:28:24;10.60;99.90
52187;DHT22;38161;53.020;6.598;2023-03-23T04:30:51;10.50;99.90
52187;DHT22;38161;53.020;6.598;2023-03-23T04:33:25;10.40;99.90
52187;DHT22;38161;53.020;6.598;2023-03-23T04:35:56;10.40;99.90
52187;DHT22;38161;53.020;6.598;2023-03-23T04:38:23;10.40;99.90
52187;DHT22;38161;53.020;6.598;2023-03-23T04:40:51;10.40;99.90
52187;DHT22;38161;53.020;6.598;2023-03-23T04:43:22;10.40;99.90
52187;DHT22;38161;53.020;6.598;2023-03-23T04:45:57;10.30;99.90
52187;DHT22;38161;53.020;6.598;2023-03-23T04:48:28;10.10;99.90
52187;DHT22;38161;53.020;6.598;2023-03-23T04:50:56;9.90;99.90
52187;DHT22;38161;53.020;6.598;2023-03-23T04:53:25;9.70;99.90
52187;DHT22;38161;53.020;6.598;2023-03-23T04:55:50;9.70;99.90
52187;DHT22;38161;53.020;6.598;2023-03-23T04:58:16;9.60;99.90
52187;DHT22;38161;53.020;6.598;2023-03-23T05:00:43;9.60;99.90
52187;DHT22;38161;53.020;6.598;2023-03-23T05:03:18;9.60;99.90
52187;DHT22;38161;53.020;6.598;2023-03-23T05:05:45;9.60;99.90
52187;DHT22;38161;53.020;6.598;2023-03-23T05:08:21;9.60;99.90
52187;DHT22;38161;53.020;6.598;2023-03-23T05:10:55;9.50;99.90
52187;DHT22;38161;53.020;6.598;2023-03-23T05:13:21;9.50;99.90
52187;DHT22;38161;53.020;6.598;2023-03-23T05:15:47;9.50;99.90
52187;DHT22;38161;53.020;6.598;2023-03-23T05:18:14;9.50;99.90
52187;DHT22;38161;53.020;6.598;2023-03-23T05:20:40;9.50;99.90
52187;DHT22;38161;53.020;6.598;2023-03-23T05:23:08;9.40;99.90
52187;DHT22;38161;53.020;6.598;2023-03-23T05:25:35;9.40;99.90
52187;DHT22;38161;53.020;6.598;2023-03-23T05:28:07;9.40;99.90
52187;DHT22;38161;53.020;6.598;2023-03-23T05:30:33;9.40;99.90
52187;DHT22;38161;53.020;6.598;2023-03-23T05:32:59;9.30;99.90
52187;DHT22;38161;53.020;6.598;2023-03-23T05:35:25;9.30;99.90
52187;DHT22;38161;53.020;6.598;2023-03-23T05:37:51;9.30;99.90
52187;DHT22;38161;53.020;6.598;2023-03-23T05:40:19;9.30;99.90
52187;DHT22;38161;53.020;6.598;2023-03-23T05:42:46;9.30;99.90
52187;DHT22;38161;53.020;6.598;2023-03-23T05:45:13;9.30;99.90
52187;DHT22;38161;53.020;6.598;2023-03-23T05:47:40;9.30;99.90
52187;DHT22;38161;53.020;6.598;2023-03-23T05:50:08;9.30;99.90
52187;DHT22;38161;53.020;6.598;2023-03-23T05:52:38;9.30;99.90
52187;DHT22;38161;53.020;6.598;2023-03-23T05:55:05;9.30;99.90
52187;DHT22;38161;53.020;6.598;2023-03-23T05:57:31;9.40;99.90
52187;DHT22;38161;53.020;6.598;2023-03-23T05:59:57;9.40;99.90
52187;DHT22;38161;53.020;6.598;2023-03-23T06:02:24;9.40;99.90
52187;DHT22;38161;53.020;6.598;2023-03-23T06:04:52;9.40;99.90
52187;DHT22;38161;53.020;6.598;2023-03-23T06:07:24;9.40;99.90
52187;DHT22;38161;53.020;6.598;2023-03-23T06:09:50;9.40;99.90
52187;DHT22;38161;53.020;6.598;2023-03-23T06:12:16;9.40;99.90
52187;DHT22;38161;53.020;6.598;2023-03-23T06:14:46;9.50;99.90
52187;DHT22;38161;53.020;6.598;2023-03-23T06:17:13;9.40;99.90
52187;DHT22;38161;53.020;6.598;2023-03-23T06:19:39;9.50;99.90
52187;DHT22;38161;53.020;6.598;2023-03-23T06:22:05;9.50;99.90
52187;DHT22;38161;53.020;6.598;2023-03-23T06:24:31;9.50;99.90
52187;DHT22;38161;53.020;6.598;2023-03-23T06:26:58;9.50;99.90
52187;DHT22;38161;53.020;6.598;2023-03-23T06:29:24;9.60;99.90
52187;DHT22;38161;53.020;6.598;2023-03-23T06:31:56;9.50;99.90
52187;DHT22;38161;53.020;6.598;2023-03-23T06:34:24;9.60;99.90
52187;DHT22;38161;53.020;6.598;2023-03-23T06:36:50;9.60;99.90
52187;DHT22;38161;53.020;6.598;2023-03-23T06:39:16;9.60;99.90
52187;DHT22;38161;53.020;6.598;2023-03-23T06:41:41;9.60;99.90
52187;DHT22;38161;53.020;6.598;2023-03-23T06:44:07;9.60;99.90
52187;DHT22;38161;53.020;6.598;2023-03-23T06:46:34;9.60;99.90
52187;DHT22;38161;53.020;6.598;2023-03-23T06:49:00;9.60;99.90
52187;DHT22;38161;53.020;6.598;2023-03-23T06:51:26;9.60;99.90
52187;DHT22;38161;53.020;6.598;2023-03-23T06:53:51;9.60;99.90
52187;DHT22;38161;53.020;6.598;2023-03-23T06:56:17;9.70;99.90
52187;DHT22;38161;53.020;6.598;2023-03-23T06:58:43;9.70;99.90
52187;DHT22;38161;53.020;6.598;2023-03-23T07:01:11;9.70;99.90
52187;DHT22;38161;53.020;6.598;2023-03-23T07:03:37;9.80;99.90
52187;DHT22;38161;53.020;6.598;2023-03-23T07:06:03;9.80;99.90
52187;DHT22;38161;53.020;6.598;2023-03-23T07:08:29;9.80;99.90
52187;DHT22;38161;53.020;6.598;2023-03-23T07:10:56;9.80;99.90
52187;DHT22;38161;53.020;6.598;2023-03-23T07:13:22;9.80;99.90
52187;DHT22;38161;53.020;6.598;2023-03-23T07:15:48;9.80;99.90
52187;DHT22;38161;53.020;6.598;2023-03-23T07:18:15;9.80;99.90
52187;DHT22;38161;53.020;6.598;2023-03-23T07:20:40;9.90;99.90
52187;DHT22;38161;53.020;6.598;2023-03-23T07:23:07;9.90;99.90
52187;DHT22;38161;53.020;6.598;2023-03-23T07:25:33;9.90;99.90
52187;DHT22;38161;53.020;6.598;2023-03-23T07:28:00;9.90;99.90
52187;DHT22;38161;53.020;6.598;2023-03-23T07:30:26;9.90;99.90
52187;DHT22;38161;53.020;6.598;2023-03-23T07:32:54;9.90;99.90
52187;DHT22;38161;53.020;6.598;2023-03-23T07:35:20;9.90;99.90
52187;DHT22;38161;53.020;6.598;2023-03-23T07:37:46;10.00;99.90
52187;DHT22;38161;53.020;6.598;2023-03-23T07:40:14;10.00;99.90
52187;DHT22;38161;53.020;6.598;2023-03-23T07:42:45;10.10;99.90
52187;DHT22;38161;53.020;6.598;2023-03-23T07:45:12;10.10;99.90
52187;DHT22;38161;53.020;6.598;2023-03-23T07:47:39;10.10;99.90
52187;DHT22;38161;53.020;6.598;2023-03-23T07:50:06;10.10;99.90
52187;DHT22;38161;53.020;6.598;2023-03-23T07:52:37;10.10;99.90
52187;DHT22;38161;53.020;6.598;2023-03-23T07:55:05;10.20;99.90
52187;DHT22;38161;53.020;6.598;2023-03-23T07:57:31;10.20;99.90
52187;DHT22;38161;53.020;6.598;2023-03-23T07:59:58;10.20;99.90
52187;DHT22;38161;53.020;6.598;2023-03-23T08:02:25;10.30;99.90
52187;DHT22;38161;53.020;6.598;2023-03-23T08:04:52;10.30;99.90
52187;DHT22;38161;53.020;6.598;2023-03-23T08:07:19;10.40;99.90
52187;DHT22;38161;53.020;6.598;2023-03-23T08:09:46;10.50;99.90
52187;DHT22;38161;53.020;6.598;2023-03-23T08:12:13;10.50;99.90
52187;DHT22;38161;53.020;6.598;2023-03-23T08:14:39;10.60;99.90
52187;DHT22;38161;53.020;6.598;2023-03-23T08:17:07;10.60;99.90
52187;DHT22;38161;53.020;6.598;2023-03-23T08:19:35;10.70;99.90
52187;DHT22;38161;53.020;6.598;2023-03-23T08:22:03;10.70;99.90
52187;DHT22;38161;53.020;6.598;2023-03-23T08:24:30;10.70;99.90
52187;DHT22;38161;53.020;6.598;2023-03-23T08:26:56;10.70;99.90
52187;DHT22;38161;53.020;6.598;2023-03-23T08:29:22;10.70;99.90
52187;DHT22;38161;53.020;6.598;2023-03-23T08:31:47;10.70;99.90
52187;DHT22;38161;53.020;6.598;2023-03-23T08:34:13;10.80;99.90
52187;DHT22;38161;53.020;6.598;2023-03-23T08:36:41;10.80;99.90
52187;DHT22;38161;53.020;6.598;2023-03-23T08:39:09;10.80;99.90
52187;DHT22;38161;53.020;6.598;2023-03-23T08:41:35;10.80;99.90
52187;DHT22;38161;53.020;6.598;2023-03-23T08:44:01;10.90;99.90
52187;DHT22;38161;53.020;6.598;2023-03-23T08:46:28;10.90;99.90
52187;DHT22;38161;53.020;6.598;2023-03-23T08:48:54;10.90;99.90
52187;DHT22;38161;53.020;6.598;2023-03-23T08:51:20;10.90;99.90
52187;DHT22;38161;53.020;6.598;2023-03-23T08:53:47;11.10;99.90
52187;DHT22;38161;53.020;6.598;2023-03-23T08:56:13;11.30;99.90
52187;DHT22;38161;53.020;6.598;2023-03-23T08:58:39;11.50;99.90
52187;DHT22;38161;53.020;6.598;2023-03-23T09:01:06;11.60;99.90
52187;DHT22;38161;53.020;6.598;2023-03-23T09:03:33;11.60;99.90
52187;DHT22;38161;53.020;6.598;2023-03-23T09:06:06;11.50;99.90
52187;DHT22;38161;53.020;6.598;2023-03-23T09:20:20;11.70;99.90
52187;DHT22;38161;53.020;6.598;2023-03-23T09:22:50;11.60;99.90
52187;DHT22;38161;53.020;6.598;2023-03-23T09:25:17;11.60;99.90
52187;DHT22;38161;53.020;6.598;2023-03-23T09:27:49;11.60;99.90
52187;DHT22;38161;53.020;6.598;2023-03-23T09:30:18;11.70;99.90
52187;DHT22;38161;53.020;6.598;2023-03-23T09:32:44;11.70;99.90
52187;DHT22;38161;53.020;6.598;2023-03-23T09:35:11;11.70;99.90
52187;DHT22;38161;53.020;6.598;2023-03-23T09:37:39;11.70;99.90
52187;DHT22;38161;53.020;6.598;2023-03-23T09:40:09;11.70;99.90
52187;DHT22;38161;53.020;6.598;2023-03-23T09:42:48;11.80;99.90
52187;DHT22;38161;53.020;6.598;2023-03-23T09:45:28;12.00;99.90
52187;DHT22;38161;53.020;6.598;2023-03-23T09:48:05;12.00;99.90
52187;DHT22;38161;53.020;6.598;2023-03-23T09:50:34;12.00;99.90
52187;DHT22;38161;53.020;6.598;2023-03-23T09:53:10;11.90;99.90
52187;DHT22;38161;53.020;6.598;2023-03-23T09:55:39;11.90;99.90
52187;DHT22;38161;53.020;6.598;2023-03-23T09:58:28;11.90;99.90
52187;DHT22;38161;53.020;6.598;2023-03-23T10:03:55;12.50;99.90
52187;DHT22;38161;53.020;6.598;2023-03-23T10:06:23;13.00;99.90
52187;DHT22;38161;53.020;6.598;2023-03-23T10:08:52;13.40;99.90
52187;DHT22;38161;53.020;6.598;2023-03-23T10:14:33;13.60;99.90
52187;DHT22;38161;53.020;6.598;2023-03-23T10:19:48;13.70;99.90
52187;DHT22;38161;53.020;6.598;2023-03-23T10:22:20;13.70;99.90
52187;DHT22;38161;53.020;6.598;2023-03-23T10:24:51;13.40;99.90
52187;DHT22;38161;53.020;6.598;2023-03-23T10:27:37;13.30;99.90
52187;DHT22;38161;53.020;6.598;2023-03-23T10:35:49;13.00;99.90
52187;DHT22;38161;53.020;6.598;2023-03-23T10:38:26;13.10;99.90
52187;DHT22;38161;53.020;6.598;2023-03-23T10:41:04;13.70;99.90
52187;DHT22;38161;53.020;6.598;2023-03-23T10:43:31;14.20;99.90
52187;DHT22;38161;53.020;6.598;2023-03-23T10:46:02;14.50;99.90
52187;DHT22;38161;53.020;6.598;2023-03-23T10:48:33;14.40;99.90
52187;DHT22;38161;53.020;6.598;2023-03-23T10:51:04;14.20;99.90
52187;DHT22;38161;53.020;6.598;2023-03-23T10:53:37;14.20;99.90
52187;DHT22;38161;53.020;6.598;2023-03-23T10:56:05;14.10;99.90
52187;DHT22;38161;53.020;6.598;2023-03-23T10:58:43;14.60;99.90
52187;DHT22;38161;53.020;6.598;2023-03-23T11:01:11;15.20;99.90
52187;DHT22;38161;53.020;6.598;2023-03-23T11:03:48;15.70;99.90
52187;DHT22;38161;53.020;6.598;2023-03-23T11:06:27;16.30;99.90
52187;DHT22;38161;53.020;6.598;2023-03-23T11:09:14;16.80;99.90
52187;DHT22;38161;53.020;6.598;2023-03-23T11:11:52;17.10;99.90
52187;DHT22;38161;53.020;6.598;2023-03-23T11:14:25;16.80;99.90
52187;DHT22;38161;53.020;6.598;2023-03-23T11:16:58;16.50;99.90
52187;DHT22;38161;53.020;6.598;2023-03-23T11:19:36;16.00;99.90
52187;DHT22;38161;53.020;6.598;2023-03-23T11:24:35;16.40;99.90
52187;DHT22;38161;53.020;6.598;2023-03-23T11:27:03;16.70;99.90
52187;DHT22;38161;53.020;6.598;2023-03-23T11:29:33;16.40;99.90
52187;DHT22;38161;53.020;6.598;2023-03-23T11:37:10;16.30;99.90
52187;DHT22;38161;53.020;6.598;2023-03-23T11:39:59;16.50;99.90
52187;DHT22;38161;53.020;6.598;2023-03-23T11:45:21;16.70;99.90
52187;DHT22;38161;53.020;6.598;2023-03-23T11:50:59;16.60;99.90
52187;DHT22;38161;53.020;6.598;2023-03-23T11:53:56;16.30;99.90
52187;DHT22;38161;53.020;6.598;2023-03-23T11:56:33;16.10;99.90
52187;DHT22;38161;53.020;6.598;2023-03-23T11:59:01;16.20;99.90
52187;DHT22;38161;53.020;6.598;2023-03-23T12:04:04;16.80;99.90
52187;DHT22;38161;53.020;6.598;2023-03-23T12:12:11;17.20;99.90
52187;DHT22;38161;53.020;6.598;2023-03-23T12:18:32;16.70;99.90
52187;DHT22;38161;53.020;6.598;2023-03-23T12:20:50;16.70;99.90
52187;DHT22;38161;53.020;6.598;2023-03-23T12:23:25;16.90;99.90
52187;DHT22;38161;53.020;6.598;2023-03-23T12:31:30;16.80;99.90
52187;DHT22;38161;53.020;6.598;2023-03-23T12:48:13;16.90;99.90
52187;DHT22;38161;53.020;6.598;2023-03-23T12:51:04;16.40;99.90
52187;DHT22;38161;53.020;6.598;2023-03-23T12:53:52;16.00;99.90
52187;DHT22;38161;53.020;6.598;2023-03-23T12:56:35;15.80;99.90
52187;DHT22;38161;53.020;6.598;2023-03-23T12:59:35;15.60;99.90
52187;DHT22;38161;53.020;6.598;2023-03-23T13:07:30;15.00;99.90
52187;DHT22;38161;53.020;6.598;2023-03-23T13:12:46;14.90;99.90
52187;DHT22;38161;53.020;6.598;2023-03-23T13:18:23;14.90;99.90
52187;DHT22;38161;53.020;6.598;2023-03-23T13:20:55;14.80;99.90
52187;DHT22;38161;53.020;6.598;2023-03-23T13:28:26;14.60;99.90
52187;DHT22;38161;53.020;6.598;2023-03-23T13:33:24;14.50;99.90
52187;DHT22;38161;53.020;6.598;2023-03-23T13:35:50;14.50;99.90
52187;DHT22;38161;53.020;6.598;2023-03-23T13:38:26;14.50;99.90
52187;DHT22;38161;53.020;6.598;2023-03-23T13:40:54;14.40;99.90
52187;DHT22;38161;53.020;6.598;2023-03-23T13:43:32;14.40;99.90
52187;DHT22;38161;53.020;6.598;2023-03-23T13:46:23;14.70;99.90
52187;DHT22;38161;53.020;6.598;2023-03-23T13:49:50;14.80;99.90
52187;DHT22;38161;53.020;6.598;2023-03-23T13:54:41;14.60;99.90
52187;DHT22;38161;53.020;6.598;2023-03-23T13:57:35;15.20;99.90
52187;DHT22;38161;53.020;6.598;2023-03-23T14:00:35;15.70;99.90
52187;DHT22;38161;53.020;6.598;2023-03-23T14:03:26;15.80;99.90
52187;DHT22;38161;53.020;6.598;2023-03-23T14:08:40;15.40;99.90
52187;DHT22;38161;53.020;6.598;2023-03-23T14:11:18;15.40;99.90
52187;DHT22;38161;53.020;6.598;2023-03-23T14:14:13;15.30;99.90
52187;DHT22;38161;53.020;6.598;2023-03-23T14:16:44;15.30;99.90
52187;DHT22;38161;53.020;6.598;2023-03-23T14:19:26;15.60;99.90
52187;DHT22;38161;53.020;6.598;2023-03-23T14:22:01;15.60;99.90
52187;DHT22;38161;53.020;6.598;2023-03-23T14:24:33;15.30;99.90
52187;DHT22;38161;53.020;6.598;2023-03-23T14:29:33;14.90;99.90
52187;DHT22;38161;53.020;6.598;2023-03-23T14:31:59;14.80;99.90
52187;DHT22;38161;53.020;6.598;2023-03-23T14:34:29;14.60;99.90
52187;DHT22;38161;53.020;6.598;2023-03-23T14:36:56;14.40;99.90
52187;DHT22;38161;53.020;6.598;2023-03-23T14:39:26;14.60;99.90
52187;DHT22;38161;53.020;6.598;2023-03-23T14:42:09;14.80;99.90
52187;DHT22;38161;53.020;6.598;2023-03-23T14:44:45;14.80;99.90
52187;DHT22;38161;53.020;6.598;2023-03-23T14:47:30;14.70;99.90
52187;DHT22;38161;53.020;6.598;2023-03-23T14:49:59;14.70;99.90
52187;DHT22;38161;53.020;6.598;2023-03-23T14:52:29;14.70;99.90
52187;DHT22;38161;53.020;6.598;2023-03-23T14:55:16;14.80;99.90
52187;DHT22;38161;53.020;6.598;2023-03-23T14:57:42;14.80;99.90
52187;DHT22;38161;53.020;6.598;2023-03-23T15:02:49;14.70;99.90
52187;DHT22;38161;53.020;6.598;2023-03-23T15:05:27;14.70;99.90
52187;DHT22;38161;53.020;6.598;2023-03-23T15:07:54;14.60;99.90
52187;DHT22;38161;53.020;6.598;2023-03-23T15:10:23;14.50;99.90
52187;DHT22;38161;53.020;6.598;2023-03-23T15:12:50;14.50;99.90
52187;DHT22;38161;53.020;6.598;2023-03-23T15:19:19;14.40;99.90
52187;DHT22;38161;53.020;6.598;2023-03-23T15:24:38;14.40;99.90
52187;DHT22;38161;53.020;6.598;2023-03-23T15:27:13;14.40;99.90
52187;DHT22;38161;53.020;6.598;2023-03-23T15:29:50;14.40;99.90
52187;DHT22;38161;53.020;6.598;2023-03-23T15:32:40;14.30;99.90
52187;DHT22;38161;53.020;6.598;2023-03-23T15:35:18;14.30;99.90
52187;DHT22;38161;53.020;6.598;2023-03-23T15:38:05;14.20;99.90
52187;DHT22;38161;53.020;6.598;2023-03-23T15:40:37;14.20;99.90
52187;DHT22;38161;53.020;6.598;2023-03-23T15:43:20;14.10;99.90
52187;DHT22;38161;53.020;6.598;2023-03-23T15:45:53;14.10;99.90
52187;DHT22;38161;53.020;6.598;2023-03-23T15:48:21;14.10;99.90
52187;DHT22;38161;53.020;6.598;2023-03-23T15:50:47;14.10;99.90
52187;DHT22;38161;53.020;6.598;2023-03-23T15:53:23;14.00;99.90
52187;DHT22;38161;53.020;6.598;2023-03-23T15:55:50;14.00;99.90
52187;DHT22;38161;53.020;6.598;2023-03-23T15:58:15;14.00;99.90
52187;DHT22;38161;53.020;6.598;2023-03-23T16:00:42;14.00;99.90
52187;DHT22;38161;53.020;6.598;2023-03-23T16:03:13;14.00;99.90
52187;DHT22;38161;53.020;6.598;2023-03-23T16:05:39;13.90;99.90
52187;DHT22;38161;53.020;6.598;2023-03-23T16:08:07;13.90;99.90
52187;DHT22;38161;53.020;6.598;2023-03-23T16:10:33;13.90;99.90
52187;DHT22;38161;53.020;6.598;2023-03-23T16:12:59;13.80;99.90
52187;DHT22;38161;53.020;6.598;2023-03-23T16:15:24;13.80;99.90
52187;DHT22;38161;53.020;6.598;2023-03-23T16:17:50;13.70;99.90
52187;DHT22;38161;53.020;6.598;2023-03-23T16:20:21;13.70;99.90
52187;DHT22;38161;53.020;6.598;2023-03-23T16:22:48;13.70;99.90
52187;DHT22;38161;53.020;6.598;2023-03-23T16:25:15;13.70;99.90
52187;DHT22;38161;53.020;6.598;2023-03-23T16:27:41;13.70;99.90
52187;DHT22;38161;53.020;6.598;2023-03-23T16:30:27;13.60;99.90
52187;DHT22;38161;53.020;6.598;2023-03-23T16:32:54;13.60;99.90
52187;DHT22;38161;53.020;6.598;2023-03-23T16:35:20;13.60;99.90
52187;DHT22;38161;53.020;6.598;2023-03-23T16:37:49;13.60;99.90
52187;DHT22;38161;53.020;6.598;2023-03-23T16:40:17;13.60;99.90
52187;DHT22;38161;53.020;6.598;2023-03-23T16:42:43;13.50;99.90
52187;DHT22;38161;53.020;6.598;2023-03-23T16:45:10;13.50;99.90
52187;DHT22;38161;53.020;6.598;2023-03-23T16:47:36;13.40;99.90
52187;DHT22;38161;53.020;6.598;2023-03-23T16:50:03;13.40;99.90
52187;DHT22;38161;53.020;6.598;2023-03-23T16:52:31;13.40;99.90
52187;DHT22;38161;53.020;6.598;2023-03-23T16:54:57;13.30;99.90
52187;DHT22;38161;53.020;6.598;2023-03-23T16:57:23;13.30;99.90
52187;DHT22;38161;53.020;6.598;2023-03-23T16:59:48;13.30;99.90
52187;DHT22;38161;53.020;6.598;2023-03-23T17:02:14;13.20;99.90
52187;DHT22;38161;53.020;6.598;2023-03-23T17:04:44;13.20;99.90
52187;DHT22;38161;53.020;6.598;2023-03-23T17:07:11;13.10;99.90
52187;DHT22;38161;53.020;6.598;2023-03-23T17:09:37;13.10;99.90
52187;DHT22;38161;53.020;6.598;2023-03-23T17:12:03;13.00;99.90
52187;DHT22;38161;53.020;6.598;2023-03-23T17:14:29;13.00;99.90
52187;DHT22;38161;53.020;6.598;2023-03-23T17:16:55;13.00;99.90
52187;DHT22;38161;53.020;6.598;2023-03-23T17:19:21;13.00;99.90
52187;DHT22;38161;53.020;6.598;2023-03-23T17:21:47;12.90;99.90
52187;DHT22;38161;53.020;6.598;2023-03-23T17:24:13;12.90;99.90
52187;DHT22;38161;53.020;6.598;2023-03-23T17:26:38;12.80;99.90
52187;DHT22;38161;53.020;6.598;2023-03-23T17:29:04;12.80;99.90
52187;DHT22;38161;53.020;6.598;2023-03-23T17:31:30;12.80;99.90
52187;DHT22;38161;53.020;6.598;2023-03-23T17:33:56;12.80;99.90
52187;DHT22;38161;53.020;6.598;2023-03-23T17:36:22;12.80;99.90
52187;DHT22;38161;53.020;6.598;2023-03-23T17:38:49;12.70;99.90
52187;DHT22;38161;53.020;6.598;2023-03-23T17:41:15;12.70;99.90
52187;DHT22;38161;53.020;6.598;2023-03-23T17:43:41;12.70;99.90
52187;DHT22;38161;53.020;6.598;2023-03-23T17:46:08;12.60;99.90
52187;DHT22;38161;53.020;6.598;2023-03-23T17:48:35;12.60;99.90
52187;DHT22;38161;53.020;6.598;2023-03-23T17:51:01;12.60;99.90
52187;DHT22;38161;53.020;6.598;2023-03-23T17:53:28;12.60;99.90
52187;DHT22;38161;53.020;6.598;2023-03-23T17:55:56;12.60;99.90
52187;DHT22;38161;53.020;6.598;2023-03-23T17:58:23;12.50;99.90
52187;DHT22;38161;53.020;6.598;2023-03-23T18:00:50;12.40;99.90
52187;DHT22;38161;53.020;6.598;2023-03-23T18:03:17;12.40;99.90
52187;DHT22;38161;53.020;6.598;2023-03-23T18:05:42;12.40;99.90